Time;durP1;ratioP1;P1;durP2;ratioP2;P2;SDS_P1;SDS_P2;PMS_P1;PMS_P2;Temp;Humidity;BMP_temperature;BMP_pressure;BME280_temperature;BME280_humidity;BME280_pressure;Samples;Min_cycle;Max_cycle;Signal;HPM_P1;HPM_P2
2022/05/03 00:00:20;;;;;;;3.58;3.38;;;;;;;12.24;71.77;95477.38;5018802;28;20038;-61
2022/05/03 00:03:00;;;;;;;6.00;2.67;;;;;;;12.26;71.57;95474.59;5024031;28;20088;-61
2022/05/03 00:05:44;;;;;;;4.15;3.65;;;;;;;12.21;73.26;95472.41;5021842;28;20159;-61
2022/05/03 00:08:27;;;;;;;8.35;3.40;;;;;;;12.20;71.97;95481.31;5025564;28;20061;-61
2022/05/03 00:11:14;;;;;;;3.60;3.28;;;;;;;12.17;72.11;95476.34;5026758;28;20093;-61
2022/05/03 00:13:46;;;;;;;3.40;3.20;;;;;;;12.17;72.94;95471.06;5024604;28;20824;-62
2022/05/03 00:16:16;;;;;;;3.53;3.28;;;;;;;12.18;73.17;95467.44;5022919;28;20040;-61
2022/05/03 00:18:42;;;;;;;5.00;3.22;;;;;;;12.12;73.14;95465.44;5024387;28;20033;-63
2022/05/03 00:21:10;;;;;;;3.30;3.10;;;;;;;12.14;72.75;95471.38;5024027;28;20045;-61
2022/05/03 00:23:36;;;;;;;4.13;3.30;;;;;;;12.12;73.82;95470.72;5027510;28;20053;-61
2022/05/03 00:26:01;;;;;;;3.40;3.20;;;;;;;12.04;74.15;95466.22;5027998;28;20476;-61
2022/05/03 00:28:28;;;;;;;3.80;3.40;;;;;;;12.03;73.50;95459.28;5024674;28;20029;-61
2022/05/03 00:30:55;;;;;;;3.25;2.97;;;;;;;12.04;72.52;95464.41;5020952;28;20033;-61
2022/05/03 00:33:22;;;;;;;3.33;3.00;;;;;;;12.02;72.56;95463.72;5019215;28;20063;-61
2022/05/03 00:35:49;;;;;;;3.47;3.17;;;;;;;12.04;72.92;95455.66;5024709;28;20571;-61
2022/05/03 00:38:15;;;;;;;3.58;3.38;;;;;;;12.04;73.17;95455.66;5026744;28;20489;-61
2022/05/03 00:40:47;;;;;;;3.25;3.05;;;;;;;12.02;72.94;95463.72;5025560;28;20025;-61
2022/05/03 00:43:30;;;;;;;3.63;2.95;;;;;;;12.01;74.34;95454.16;5026100;28;20200;-61
2022/05/03 00:46:07;;;;;;;3.70;3.40;;;;;;;12.02;72.96;95461.09;5027198;28;20493;-61
2022/05/03 00:48:44;;;;;;;3.20;3.00;;;;;;;12.00;76.30;95455.13;5024076;28;20558;-62
2022/05/03 00:51:16;;;;;;;3.47;3.17;;;;;;;11.94;74.37;95449.66;5027989;28;20105;-61
2022/05/03 00:54:01;;;;;;;5.03;3.20;;;;;;;11.86;76.21;95453.06;5021519;28;20416;-60
2022/05/03 00:56:37;;;;;;;3.97;3.08;;;;;;;11.87;75.54;95449.47;5007714;28;20527;-60
2022/05/03 00:59:15;;;;;;;3.30;3.00;;;;;;;11.84;75.50;95455.03;5018308;28;20049;-60
2022/05/03 01:01:59;;;;;;;3.78;3.47;;;;;;;11.83;75.73;95453.41;5026326;28;20131;-60
2022/05/03 01:04:30;;;;;;;5.28;3.30;;;;;;;11.80;74.92;95448.41;5023357;28;20046;-62
2022/05/03 01:07:09;;;;;;;3.35;3.15;;;;;;;11.76;75.12;95445.28;5022132;28;20030;-61
2022/05/03 01:09:42;;;;;;;3.47;3.10;;;;;;;11.65;75.37;95446.34;5028995;28;20558;-61
2022/05/03 01:12:10;;;;;;;4.13;3.60;;;;;;;11.55;77.46;95445.59;5023970;28;20036;-61
2022/05/03 01:15:07;;;;;;;3.60;3.28;;;;;;;11.50;76.60;95454.00;5019584;28;20520;-61
2022/05/03 01:17:45;;;;;;;3.90;3.63;;;;;;;11.44;77.44;95450.16;5021084;28;20052;-61
2022/05/03 01:20:26;;;;;;;4.00;3.15;;;;;;;11.41;77.17;95457.53;5023349;28;20542;-62
2022/05/03 01:23:09;;;;;;;3.47;3.28;;;;;;;11.40;76.97;95453.25;5031455;28;20041;-61
2022/05/03 01:25:35;;;;;;;3.45;3.25;;;;;;;11.42;76.57;95456.56;5023574;28;20435;-61
2022/05/03 01:28:16;;;;;;;3.53;3.20;;;;;;;11.41;76.82;95457.53;5027185;28;20038;-61
2022/05/03 01:30:47;;;;;;;4.15;3.50;;;;;;;11.40;77.49;95454.09;5026917;28;20033;-61
2022/05/03 01:33:18;;;;;;;3.40;3.13;;;;;;;11.38;77.49;95448.13;5018154;28;20047;-61
2022/05/03 01:35:49;;;;;;;3.63;3.42;;;;;;;11.39;77.07;95455.06;5023537;28;20037;-61
2022/05/03 01:38:39;;;;;;;5.13;3.58;;;;;;;11.38;77.49;95445.47;5030697;28;20111;-61
2022/05/03 01:41:28;;;;;;;3.63;3.42;;;;;;;11.41;77.22;95454.91;5018839;28;20026;-61
2022/05/03 01:43:59;;;;;;;3.53;3.22;;;;;;;11.48;76.77;95453.28;5020018;28;20113;-61
2022/05/03 01:46:30;;;;;;;4.00;3.65;;;;;;;11.52;76.49;95451.19;5025886;28;20029;-61
2022/05/03 01:51:45;;;;;;;3.50;3.22;;;;;;;11.39;77.49;95462.13;5024172;28;20534;-61
2022/05/03 01:54:32;;;;;;;3.47;3.28;;;;;;;11.37;77.27;95454.38;5025573;28;20033;-62
2022/05/03 01:57:10;;;;;;;3.72;3.35;;;;;;;11.35;77.10;95460.78;5019495;28;20060;-61
2022/05/03 01:59:38;;;;;;;4.07;3.72;;;;;;;11.35;77.45;95461.59;5019182;28;20505;-61
2022/05/03 02:02:44;;;;;;;3.42;3.22;;;;;;;11.36;76.86;95460.63;5024037;28;20037;-61
2022/05/03 02:05:18;;;;;;;3.92;3.50;;;;;;;11.32;78.36;95464.53;4982370;28;20041;-61
2022/05/03 02:07:51;;;;;;;4.20;3.50;;;;;;;11.32;78.24;95459.28;5021186;28;20493;-61
2022/05/03 02:10:41;;;;;;;3.70;3.47;;;;;;;11.39;78.14;95462.97;5023930;28;20025;-61
2022/05/03 02:13:18;;;;;;;3.83;3.63;;;;;;;11.38;79.30;95461.28;5022845;28;20022;-61
2022/05/03 02:15:49;;;;;;;4.00;3.78;;;;;;;11.36;79.32;95465.88;5023145;28;20104;-61
2022/05/03 02:18:46;;;;;;;3.75;3.50;;;;;;;11.36;79.19;95473.00;5018585;28;20041;-62
2022/05/03 02:21:25;;;;;;;3.53;3.33;;;;;;;11.37;78.28;95464.09;5021893;28;20022;-61
2022/05/03 02:24:01;;;;;;;4.20;3.90;;;;;;;11.40;78.04;95469.91;5016717;28;20030;-61
2022/05/03 02:26:28;;;;;;;3.53;3.33;;;;;;;11.38;77.95;95471.03;5027564;28;20104;-61
2022/05/03 02:29:26;;;;;;;3.65;3.45;;;;;;;11.34;79.69;95465.22;5022512;28;20040;-61
2022/05/03 02:32:33;;;;;;;4.13;3.72;;;;;;;11.37;78.09;95472.00;4999665;28;20041;-61
2022/05/03 02:35:05;;;;;;;3.45;3.20;;;;;;;11.36;78.50;95473.78;4988487;28;20080;-61
2022/05/03 02:37:38;;;;;;;4.25;3.88;;;;;;;11.31;78.99;95479.53;5018802;28;20132;-61
2022/05/03 02:40:07;;;;;;;4.18;3.78;;;;;;;11.32;78.40;95475.94;5025511;28;20622;-61
2022/05/03 02:42:33;;;;;;;3.95;3.63;;;;;;;11.30;79.94;95474.41;5025593;28;20033;-61
2022/05/03 02:45:00;;;;;;;6.00;4.03;;;;;;;11.26;79.63;95473.06;5023837;28;20068;-61
2022/05/03 02:47:34;;;;;;;4.13;3.83;;;;;;;11.24;79.79;95472.41;5028447;28;20372;-61
2022/05/03 02:50:09;;;;;;;4.47;4.18;;;;;;;11.25;79.75;95471.41;5018207;28;20037;-62
2022/05/03 02:52:53;;;;;;;3.85;3.15;;;;;;;11.22;79.77;95466.44;5019826;28;20033;-61
2022/05/03 02:55:20;;;;;;;5.07;4.35;;;;;;;11.27;78.87;95474.72;5020200;28;20093;-61
2022/05/03 02:58:05;;;;;;;4.22;3.92;;;;;;;11.24;79.65;95470.56;5019938;28;20032;-61
2022/05/03 03:03:32;;;;;;;4.72;3.80;;;;;;;11.22;81.31;95482.25;5024515;28;20037;-62
2022/05/03 03:06:01;;;;;;;4.33;4.00;;;;;;;11.23;80.97;95468.91;5019032;28;20036;-60
2022/05/03 03:08:35;;;;;;;4.45;3.63;;;;;;;11.21;80.56;95472.69;5018963;28;20045;-61
2022/05/03 03:11:03;;;;;;;3.78;3.47;;;;;;;11.18;79.94;95471.19;5021830;28;20064;-61
2022/05/03 03:13:48;;;;;;;3.83;3.53;;;;;;;11.12;79.81;95471.78;5019368;28;20033;-61
2022/05/03 03:16:14;;;;;;;5.25;4.03;;;;;;;11.08;79.44;95463.34;5017917;28;20037;-61
2022/05/03 03:18:46;;;;;;;4.07;3.75;;;;;;;11.09;79.37;95469.47;5020911;28;20036;-61
2022/05/03 03:21:13;;;;;;;3.67;3.47;;;;;;;11.14;79.79;95460.09;5024407;28;20037;-61
2022/05/03 03:23:40;;;;;;;6.65;4.15;;;;;;;11.14;80.68;95465.38;5029028;28;20503;-61
2022/05/03 03:26:06;;;;;;;5.50;3.97;;;;;;;11.10;81.15;95463.22;5021327;28;20021;-61
2022/05/03 03:28:34;;;;;;;4.50;4.05;;;;;;;11.00;80.65;95466.72;5020644;28;20132;-60
2022/05/03 03:31:02;;;;;;;3.88;3.50;;;;;;;10.98;80.83;95462.63;5016061;28;20041;-61
2022/05/03 03:33:34;;;;;;;3.88;3.58;;;;;;;10.93;80.83;95472.75;5018710;28;20452;-61
2022/05/03 03:36:02;;;;;;;4.32;3.92;;;;;;;10.91;80.85;95469.44;5023213;28;20041;-61
2022/05/03 03:38:37;;;;;;;4.68;3.67;;;;;;;10.86;81.51;95468.09;5028055;28;20065;-61
2022/05/03 03:41:03;;;;;;;4.35;4.07;;;;;;;10.87;80.93;95467.09;5022837;28;20041;-61
2022/05/03 03:43:30;;;;;;;4.05;3.65;;;;;;;10.83;81.06;95467.53;5028968;28;20469;-61
2022/05/03 03:45:55;;;;;;;4.40;4.10;;;;;;;10.81;81.20;95469.50;5029453;28;20385;-61
2022/05/03 03:48:21;;;;;;;5.03;3.70;;;;;;;10.73;81.76;95468.44;5026847;28;20037;-61
2022/05/03 03:50:47;;;;;;;4.47;3.80;;;;;;;10.64;82.81;95468.50;5022958;28;20030;-60
2022/05/03 03:53:16;;;;;;;3.83;3.63;;;;;;;10.57;83.39;95469.09;5019204;28;20048;-61
2022/05/03 03:55:42;;;;;;;5.63;4.10;;;;;;;10.53;83.85;95466.91;5018325;28;20049;-61
2022/05/03 03:58:09;;;;;;;4.32;4.03;;;;;;;10.52;83.82;95467.88;5015600;28;20539;-61
2022/05/03 04:00:35;;;;;;;4.07;3.78;;;;;;;10.52;83.74;95474.00;5023166;28;20033;-61
2022/05/03 04:03:01;;;;;;;4.32;3.92;;;;;;;10.50;83.98;95470.69;5026301;28;20026;-61
2022/05/03 04:05:28;;;;;;;7.68;4.35;;;;;;;10.47;84.22;95465.69;5022336;28;20500;-62
2022/05/03 04:07:53;;;;;;;4.68;4.30;;;;;;;10.51;83.44;95474.13;5031274;28;20026;-61
2022/05/03 04:10:20;;;;;;;4.60;4.20;;;;;;;10.53;83.97;95470.38;5026778;28;20037;-60
2022/05/03 04:12:45;;;;;;;5.03;4.55;;;;;;;10.52;84.77;95473.16;5025002;28;20507;-60
2022/05/03 04:15:11;;;;;;;7.82;4.38;;;;;;;10.49;85.33;95470.81;5022584;28;20029;-61
2022/05/03 04:17:36;;;;;;;7.10;4.78;;;;;;;10.50;84.60;95473.31;5029129;28;20026;-60
2022/05/03 04:20:02;;;;;;;9.30;8.18;;;;;;;10.52;83.71;95475.78;5024295;28;20236;-60
2022/05/03 04:22:35;;;;;;;6.63;6.03;;;;;;;10.48;85.10;95477.06;5031472;28;20029;-60
2022/05/03 04:25:02;;;;;;;5.22;4.75;;;;;;;10.51;83.90;95476.75;5023446;28;20099;-60
2022/05/03 04:27:28;;;;;;;3.80;3.60;;;;;;;10.53;83.54;95473.00;5021258;28;20025;-60
2022/05/03 04:29:55;;;;;;;4.63;4.32;;;;;;;10.64;82.55;95482.50;5024830;28;20415;-61
2022/05/03 04:32:21;;;;;;;5.32;4.07;;;;;;;10.69;81.73;95485.53;5027956;28;20128;-60
2022/05/03 04:34:47;;;;;;;4.32;4.10;;;;;;;10.65;82.28;95492.06;5025616;28;20480;-60
2022/05/03 04:37:13;;;;;;;4.82;4.28;;;;;;;10.55;82.84;95499.16;5025640;28;20085;-61
2022/05/03 04:39:38;;;;;;;4.97;4.63;;;;;;;10.54;82.74;95498.34;5032202;28;20499;-60
2022/05/03 04:42:05;;;;;;;5.05;4.55;;;;;;;10.53;82.75;95493.22;5032499;28;20023;-60
2022/05/03 04:44:30;;;;;;;4.22;3.85;;;;;;;10.49;84.06;95497.13;5032246;28;20559;-60
2022/05/03 04:46:55;;;;;;;4.43;4.05;;;;;;;10.45;83.17;95492.16;5031819;28;20113;-60
2022/05/03 04:49:21;;;;;;;5.03;4.53;;;;;;;10.46;82.65;95500.88;5032322;28;20029;-61
2022/05/03 04:51:47;;;;;;;4.45;3.88;;;;;;;10.46;82.66;95498.25;5032527;28;20021;-60
2022/05/03 04:54:12;;;;;;;4.53;4.13;;;;;;;10.46;82.51;95506.13;5032092;28;20025;-61
2022/05/03 04:56:37;;;;;;;4.88;4.47;;;;;;;10.55;81.43;95504.44;5032137;28;20083;-60
2022/05/03 04:59:03;;;;;;;4.18;3.88;;;;;;;10.60;80.51;95510.94;5032068;28;20042;-60
2022/05/03 05:01:29;;;;;;;4.30;3.90;;;;;;;10.59;80.99;95504.00;5031968;28;20029;-60
2022/05/03 05:03:55;;;;;;;4.78;4.28;;;;;;;10.54;81.55;95508.88;5032055;28;20032;-61
2022/05/03 05:06:20;;;;;;;4.38;4.10;;;;;;;10.54;81.58;95515.94;5030826;28;20041;-60
2022/05/03 05:08:46;;;;;;;4.47;4.07;;;;;;;10.54;81.91;95514.16;5031896;28;20400;-60
2022/05/03 05:11:12;;;;;;;4.32;3.92;;;;;;;10.51;82.48;95508.34;5031913;28;20132;-60
2022/05/03 05:13:38;;;;;;;5.43;3.83;;;;;;;10.55;82.82;95513.19;5031939;28;20033;-60
2022/05/03 05:16:05;;;;;;;4.35;4.05;;;;;;;10.63;82.38;95504.56;5031678;28;20030;-60
2022/05/03 05:18:31;;;;;;;4.57;4.18;;;;;;;10.65;82.14;95501.75;5031467;28;20042;-60
2022/05/03 05:20:56;;;;;;;4.20;3.90;;;;;;;10.68;82.10;95504.94;5031786;28;20025;-61
2022/05/03 05:23:22;;;;;;;7.50;4.05;;;;;;;10.70;81.93;95515.31;5031069;28;20036;-61
2022/05/03 05:25:48;;;;;;;4.88;4.57;;;;;;;10.69;81.74;95511.00;5031100;28;20025;-60
2022/05/03 05:28:15;;;;;;;4.45;4.05;;;;;;;10.71;81.50;95506.41;5031611;28;20076;-60
2022/05/03 05:30:41;;;;;;;4.32;4.00;;;;;;;10.74;81.80;95514.06;5031655;28;20034;-61
2022/05/03 05:33:07;;;;;;;4.63;4.22;;;;;;;10.85;80.65;95513.84;5031195;28;20310;-60
2022/05/03 05:35:33;;;;;;;7.45;4.03;;;;;;;10.94;81.93;95517.38;5030035;28;20083;-60
2022/05/03 05:37:58;;;;;;;7.47;4.55;;;;;;;11.01;83.03;95518.44;5029701;28;20052;-60
2022/05/03 05:40:24;;;;;;;5.53;4.30;;;;;;;11.00;81.47;95524.69;5029981;28;20116;-61
2022/05/03 05:42:50;;;;;;;4.95;4.40;;;;;;;11.08;80.56;95521.31;5031521;28;20029;-60
2022/05/03 05:45:16;;;;;;;12.77;4.63;;;;;;;11.18;79.28;95519.44;5030602;28;20523;-60
2022/05/03 05:47:42;;;;;;;10.10;4.50;;;;;;;11.25;81.29;95524.13;5030418;28;20057;-60
2022/05/03 05:50:11;;;;;;;7.18;4.50;;;;;;;11.29;81.88;95525.47;5031291;28;20025;-59
2022/05/03 05:55:21;;;;;;;6.07;5.40;;;;;;;11.63;80.19;95519.50;5029444;28;20131;-60
2022/05/03 05:57:46;;;;;;;5.57;4.80;;;;;;;11.80;79.00;95524.88;5029285;28;20509;-59
2022/05/03 06:00:13;;;;;;;4.65;4.22;;;;;;;11.96;77.34;95522.38;5028187;28;20030;-61
2022/05/03 06:02:39;;;;;;;4.30;4.00;;;;;;;12.29;74.52;95525.25;5029142;28;20018;-60
2022/05/03 06:05:06;;;;;;;3.70;3.50;;;;;;;12.49;71.32;95529.47;5028953;28;20021;-61
2022/05/03 06:07:31;;;;;;;3.90;3.60;;;;;;;12.50;70.74;95526.69;5028827;28;20518;-60
2022/05/03 06:09:56;;;;;;;3.78;3.42;;;;;;;12.65;70.08;95526.06;5027915;28;20049;-61
2022/05/03 06:12:22;;;;;;;3.92;3.63;;;;;;;12.70;70.73;95529.06;5013608;28;20601;-60
2022/05/03 06:14:47;;;;;;;3.47;3.22;;;;;;;12.94;70.42;95530.97;5014170;28;20526;-61
2022/05/03 06:17:13;;;;;;;4.70;3.65;;;;;;;13.19;68.73;95525.72;5010687;28;20398;-60
2022/05/03 06:19:38;;;;;;;3.67;3.38;;;;;;;13.47;67.39;95525.47;5010863;28;20026;-61
2022/05/03 06:22:03;;;;;;;3.67;3.20;;;;;;;13.79;67.16;95523.00;5010745;28;20080;-61
2022/05/03 06:24:29;;;;;;;3.40;3.13;;;;;;;14.09;66.28;95516.19;5010031;28;20752;-61
2022/05/03 06:26:54;;;;;;;3.53;3.22;;;;;;;14.20;65.58;95519.50;5010720;28;20084;-61
2022/05/03 06:29:20;;;;;;;3.80;3.50;;;;;;;14.45;65.60;95517.59;5014304;28;20496;-61
2022/05/03 06:31:45;;;;;;;3.50;3.22;;;;;;;14.69;66.29;95521.97;5019152;28;20691;-60
2022/05/03 06:34:11;;;;;;;3.42;3.22;;;;;;;14.86;66.36;95520.09;5030207;28;20056;-60
2022/05/03 06:36:37;;;;;;;3.88;3.22;;;;;;;14.94;65.61;95515.78;5029160;28;20873;-60
2022/05/03 06:39:05;;;;;;;3.72;3.30;;;;;;;15.02;64.29;95519.19;5030314;28;20040;-61
2022/05/03 06:41:31;;;;;;;4.72;3.28;;;;;;;15.15;64.80;95523.97;5030199;28;20025;-60
2022/05/03 06:43:58;;;;;;;3.42;3.20;;;;;;;15.30;63.88;95523.19;5029942;28;20033;-60
2022/05/03 06:46:24;;;;;;;4.00;3.70;;;;;;;15.67;62.41;95518.13;5030271;28;20038;-61
2022/05/03 06:48:49;;;;;;;4.97;3.53;;;;;;;16.11;60.68;95521.94;5030359;28;20037;-60
2022/05/03 06:51:15;;;;;;;6.95;3.08;;;;;;;16.47;59.24;95518.59;5029851;28;20060;-61
2022/05/03 06:53:41;;;;;;;3.30;3.10;;;;;;;16.52;58.87;95518.84;5030072;28;20025;-61
2022/05/03 06:56:07;;;;;;;3.55;3.25;;;;;;;16.96;58.20;95517.16;5029968;28;20041;-61
2022/05/03 06:58:32;;;;;;;4.00;3.40;;;;;;;17.01;59.90;95520.09;5029714;28;20045;-60
2022/05/03 07:00:57;;;;;;;3.50;3.20;;;;;;;17.59;56.60;95518.47;5029772;28;20389;-61
2022/05/03 07:03:24;;;;;;;3.35;3.05;;;;;;;18.23;55.07;95516.75;5028441;28;20479;-60
2022/05/03 07:05:50;;;;;;;3.22;3.03;;;;;;;18.24;51.84;95523.75;5029909;28;20056;-60
2022/05/03 07:08:15;;;;;;;3.05;2.70;;;;;;;18.72;50.13;95515.00;5029846;28;20108;-61
2022/05/03 07:10:41;;;;;;;7.60;3.22;;;;;;;18.85;48.55;95518.75;5029868;28;20021;-60
2022/05/03 07:13:13;;;;;;;3.72;3.42;;;;;;;19.10;48.59;95524.41;5028725;28;20483;-60
2022/05/03 07:15:38;;;;;;;3.42;3.20;;;;;;;18.84;49.66;95517.13;5026977;28;20032;-61
2022/05/03 07:23:31;;;;;;;2.90;2.70;;;;;;;19.81;45.74;95526.84;5022109;28;20099;-61
2022/05/03 07:25:58;;;;;;;2.83;2.50;;;;;;;20.10;43.18;95522.16;5029352;28;20480;-60
2022/05/03 07:28:23;;;;;;;2.80;2.42;;;;;;;19.20;46.71;95521.38;5028735;28;20079;-61
2022/05/03 07:30:49;;;;;;;2.65;2.45;;;;;;;18.40;47.92;95530.63;5028940;28;20041;-61
2022/05/03 07:33:14;;;;;;;2.50;2.40;;;;;;;19.09;45.85;95522.78;5027896;28;20070;-60
2022/05/03 07:35:40;;;;;;;2.38;2.28;;;;;;;17.95;49.22;95527.38;5028886;28;20030;-60
2022/05/03 07:38:05;;;;;;;4.57;2.47;;;;;;;17.63;51.59;95524.22;5028872;28;20030;-60
2022/05/03 07:40:31;;;;;;;2.78;2.53;;;;;;;16.89;52.06;95530.34;5029060;28;20030;-60
2022/05/03 07:42:56;;;;;;;3.13;2.50;;;;;;;17.73;51.11;95524.75;5029321;28;20026;-60
2022/05/03 07:45:21;;;;;;;2.97;2.72;;;;;;;17.92;48.77;95530.44;5027960;28;20060;-59
2022/05/03 07:47:47;;;;;;;3.15;2.58;;;;;;;17.72;49.81;95528.41;5028942;28;20022;-60
2022/05/03 07:50:13;;;;;;;2.67;2.47;;;;;;;17.84;49.55;95532.19;5029139;28;20496;-60
2022/05/03 07:52:39;;;;;;;2.58;2.38;;;;;;;18.08;48.74;95532.84;5028724;28;20025;-60
2022/05/03 07:55:07;;;;;;;2.70;2.50;;;;;;;18.16;47.51;95535.38;5028579;28;20025;-60
2022/05/03 07:57:33;;;;;;;6.55;2.85;;;;;;;18.26;46.43;95535.03;5028658;28;20083;-60
2022/05/03 07:59:58;;;;;;;2.42;2.33;;;;;;;17.91;48.34;95542.91;5027885;28;20053;-60
2022/05/03 08:02:25;;;;;;;3.20;2.70;;;;;;;18.21;47.19;95542.75;5028847;28;20037;-60
2022/05/03 08:04:52;;;;;;;2.70;2.50;;;;;;;18.15;47.03;95532.88;5028612;28;20025;-60
2022/05/03 08:07:19;;;;;;;2.75;2.55;;;;;;;18.46;45.72;95543.16;5028347;28;20027;-60
2022/05/03 08:09:45;;;;;;;2.67;2.15;;;;;;;18.50;48.13;95540.94;5028813;28;20025;-60
2022/05/03 08:12:11;;;;;;;2.60;2.47;;;;;;;19.07;46.99;95540.81;5027842;28;20084;-60
2022/05/03 08:14:37;;;;;;;2.70;2.50;;;;;;;18.98;45.61;95537.50;5026442;28;20030;-60
2022/05/03 08:17:03;;;;;;;2.50;2.40;;;;;;;19.56;43.89;95543.44;5026772;28;20036;-61
2022/05/03 08:19:29;;;;;;;2.88;2.60;;;;;;;19.13;44.98;95537.38;5026642;28;20025;-60
2022/05/03 08:21:56;;;;;;;2.97;2.72;;;;;;;19.31;45.79;95528.81;5027198;28;20057;-60
2022/05/03 08:24:25;;;;;;;2.97;2.65;;;;;;;19.83;43.39;95530.94;5031632;28;20037;-61
2022/05/03 08:26:51;;;;;;;2.63;2.33;;;;;;;20.31;43.00;95534.47;5031848;28;20496;-60
2022/05/03 08:29:17;;;;;;;3.38;2.15;;;;;;;20.60;41.87;95529.72;5032268;28;20029;-60
2022/05/03 08:31:42;;;;;;;2.40;2.30;;;;;;;20.72;41.35;95535.25;5031940;28;20032;-61
2022/05/03 08:34:09;;;;;;;2.15;2.05;;;;;;;21.02;41.15;95530.25;5031271;28;20061;-61
2022/05/03 08:36:35;;;;;;;2.65;2.15;;;;;;;20.79;41.11;95532.56;5029902;28;20033;-60
2022/05/03 08:42:06;;;;;;;2.25;2.15;;;;;;;20.64;40.92;95527.41;5030348;28;20084;-60
2022/05/03 08:44:33;;;;;;;2.78;2.42;;;;;;;20.41;42.00;95531.38;5031743;28;20064;-60
2022/05/03 08:47:00;;;;;;;2.58;2.40;;;;;;;20.70;40.96;95537.31;5031171;28;20556;-61
2022/05/03 08:49:52;;;;;;;2.47;2.38;;;;;;;20.46;40.49;95532.41;5032041;28;20061;-60
2022/05/03 08:52:20;;;;;;;3.88;3.10;;;;;;;20.26;41.99;95524.41;5013176;28;20121;-60
2022/05/03 08:54:46;;;;;;;4.00;3.15;;;;;;;21.03;40.44;95531.03;5031729;28;20399;-60
2022/05/03 08:57:12;;;;;;;3.60;3.30;;;;;;;21.16;39.06;95533.69;5031269;28;20029;-60
2022/05/03 08:59:38;;;;;;;4.00;3.05;;;;;;;20.20;42.06;95530.56;5031184;28;20420;-61
2022/05/03 09:02:04;;;;;;;5.03;3.20;;;;;;;20.84;40.98;95528.22;5031002;28;20037;-60
2022/05/03 09:04:30;;;;;;;3.45;3.00;;;;;;;20.74;40.67;95530.50;5031591;28;20574;-61
2022/05/03 09:06:55;;;;;;;2.85;2.65;;;;;;;20.13;41.42;95532.44;5029719;28;20037;-60
2022/05/03 09:09:22;;;;;;;2.60;2.40;;;;;;;20.09;41.40;95531.22;5029355;28;20033;-60
2022/05/03 09:11:53;;;;;;;2.58;2.38;;;;;;;19.83;42.31;95528.28;5030026;28;20025;-60
2022/05/03 09:14:36;;;;;;;2.35;2.15;;;;;;;19.44;43.53;95520.00;5029665;28;20427;-60
2022/05/03 09:17:03;;;;;;;2.75;2.53;;;;;;;19.29;44.39;95522.00;5029342;28;20021;-60
2022/05/03 09:19:28;;;;;;;3.67;2.40;;;;;;;19.93;42.02;95527.09;5030284;28;20388;-60
2022/05/03 09:24:57;;;;;;;3.38;2.80;;;;;;;19.58;43.33;95514.72;5030492;28;20106;-60
2022/05/03 09:27:24;;;;;;;3.05;2.72;;;;;;;19.31;43.84;95519.97;5028943;28;20083;-60
2022/05/03 09:30:10;;;;;;;4.53;2.70;;;;;;;19.67;43.97;95512.63;5031289;28;20029;-60
2022/05/03 09:32:43;;;;;;;3.20;2.90;;;;;;;20.12;41.56;95520.94;5031039;28;20022;-60
2022/05/03 09:35:27;;;;;;;5.57;2.75;;;;;;;19.58;42.55;95520.06;5021354;28;20061;-60
2022/05/03 09:37:53;;;;;;;4.10;2.50;;;;;;;19.65;42.18;95525.38;5028713;28;20017;-60
2022/05/03 09:40:18;;;;;;;2.50;2.33;;;;;;;19.27;43.85;95519.56;5028945;28;20518;-61
2022/05/03 09:42:52;;;;;;;2.92;2.72;;;;;;;19.61;44.04;95520.44;5029176;28;20052;-61
2022/05/03 09:45:24;;;;;;;2.90;2.70;;;;;;;19.59;44.02;95522.50;5028722;28;20033;-61
2022/05/03 09:47:52;;;;;;;8.88;2.95;;;;;;;19.86;42.60;95516.38;5029346;28;20352;-61
2022/05/03 09:50:27;;;;;;;4.93;2.50;;;;;;;19.65;43.63;95515.53;5026788;28;20083;-61
2022/05/03 09:52:53;;;;;;;;;;;;;;;19.73;42.89;95518.00;5022839;28;20030;-60
2022/05/03 09:55:32;;;;;;;2.35;2.25;;;;;;;19.94;42.20;95521.53;5025001;28;20334;-60
2022/05/03 09:58:02;;;;;;;3.00;2.70;;;;;;;20.23;39.85;95518.66;5028756;28;20504;-60
2022/05/03 10:00:29;;;;;;;2.90;2.70;;;;;;;20.16;42.14;95519.50;5021891;28;20065;-60
2022/05/03 10:02:54;;;;;;;5.32;3.00;;;;;;;20.25;42.30;95513.91;5028939;28;20106;-61
2022/05/03 10:05:21;;;;;;;3.70;3.38;;;;;;;20.83;40.50;95510.53;5029951;28;20845;-60
2022/05/03 10:07:51;;;;;;;3.72;3.17;;;;;;;21.55;38.10;95511.41;5030343;28;20095;-60
2022/05/03 10:10:17;;;;;;;4.80;3.58;;;;;;;21.29;39.03;95515.88;5030722;28;20034;-60
2022/05/03 10:12:44;;;;;;;6.32;3.13;;;;;;;21.67;38.81;95509.72;5030759;28;20083;-60
2022/05/03 10:15:10;;;;;;;4.03;2.65;;;;;;;21.73;38.99;95503.50;5030491;28;20025;-60
2022/05/03 10:20:40;;;;;;;2.88;2.67;;;;;;;22.54;37.42;95508.22;5031122;28;20111;-60
2022/05/03 10:23:28;;;;;;;5.60;2.60;;;;;;;22.77;37.51;95512.09;5030605;28;20021;-60
2022/05/03 10:25:57;;;;;;;2.25;2.08;;;;;;;22.89;36.07;95504.94;5030162;28;20135;-60
2022/05/03 10:28:23;;;;;;;1.85;1.75;;;;;;;22.92;36.33;95505.53;5030409;28;20036;-60
2022/05/03 10:31:04;;;;;;;4.47;2.40;;;;;;;22.47;38.12;95507.47;5030604;28;20128;-60
2022/05/03 10:33:29;;;;;;;2.40;2.30;;;;;;;22.44;37.96;95502.53;5030285;28;20029;-60
2022/05/03 10:35:55;;;;;;;4.47;2.40;;;;;;;22.63;40.22;95508.75;5030428;28;20124;-59
2022/05/03 10:38:37;;;;;;;3.08;2.55;;;;;;;23.05;37.26;95500.00;5030357;28;20063;-60
2022/05/03 10:41:08;;;;;;;2.47;2.28;;;;;;;22.78;39.53;95500.31;5030352;28;20405;-60
2022/05/03 10:43:35;;;;;;;2.70;2.50;;;;;;;23.39;39.17;95499.59;5030220;28;20472;-60
2022/05/03 10:46:19;;;;;;;3.97;2.40;;;;;;;23.97;36.47;95500.78;5030258;28;20037;-60
2022/05/03 10:49:04;;;;;;;2.30;2.13;;;;;;;23.27;36.64;95495.00;5030088;28;20047;-59
2022/05/03 10:51:30;;;;;;;2.10;2.00;;;;;;;23.16;36.60;95493.88;5029084;28;20478;-59
2022/05/03 10:54:00;;;;;;;2.53;2.33;;;;;;;22.84;36.94;95488.69;5029356;28;20025;-60
2022/05/03 10:56:26;;;;;;;2.40;2.30;;;;;;;22.93;36.54;95493.75;5029795;28;20530;-59
2022/05/03 10:59:10;;;;;;;4.80;2.63;;;;;;;22.55;37.96;95487.59;5029474;28;20057;-59
2022/05/03 11:01:57;;;;;;;2.20;2.10;;;;;;;22.77;37.17;95490.63;5029650;28;20508;-59
2022/05/03 11:04:24;;;;;;;2.30;2.20;;;;;;;22.93;37.27;95483.03;5029913;28;20054;-59
2022/05/03 11:06:49;;;;;;;2.55;2.42;;;;;;;23.07;36.45;95481.00;5029893;28;20088;-59
2022/05/03 11:09:25;;;;;;;2.75;2.30;;;;;;;22.93;37.06;95483.81;5029875;28;20463;-59
2022/05/03 11:11:58;;;;;;;2.92;2.45;;;;;;;23.18;36.72;95483.72;5029523;28;20025;-60
2022/05/03 11:14:26;;;;;;;2.10;2.00;;;;;;;22.85;37.12;95476.09;5029556;28;20432;-60
2022/05/03 11:17:09;;;;;;;2.35;2.15;;;;;;;22.69;37.53;95477.53;5029725;28;20479;-60
2022/05/03 11:19:43;;;;;;;2.88;2.33;;;;;;;22.48;38.31;95471.56;5029610;28;20574;-60
2022/05/03 11:22:14;;;;;;;6.13;2.17;;;;;;;22.72;37.01;95469.03;5029732;28;20055;-60
2022/05/03 11:24:44;;;;;;;4.88;2.45;;;;;;;22.32;38.20;95475.59;5029608;28;20036;-59
2022/05/03 11:27:10;;;;;;;3.70;2.40;;;;;;;22.45;38.47;95472.78;5029720;28;20124;-60
2022/05/03 11:29:42;;;;;;;3.55;2.20;;;;;;;22.20;38.12;95482.72;5029343;28;20098;-60
2022/05/03 11:32:09;;;;;;;3.22;2.30;;;;;;;21.79;38.76;95472.34;5029607;28;20029;-60
2022/05/03 11:34:35;;;;;;;3.65;2.03;;;;;;;21.74;38.81;95470.31;5029420;28;20025;-59
2022/05/03 11:37:03;;;;;;;2.25;2.05;;;;;;;21.71;39.25;95476.09;5029328;28;20082;-59
2022/05/03 11:39:28;;;;;;;2.60;2.40;;;;;;;21.97;38.00;95474.25;5029367;28;20504;-59
2022/05/03 11:41:54;;;;;;;2.47;2.30;;;;;;;22.33;38.80;95475.38;5029640;28;20164;-60
2022/05/03 11:44:20;;;;;;;2.40;2.30;;;;;;;22.35;37.50;95463.59;5029472;28;20413;-60
2022/05/03 11:46:48;;;;;;;7.28;2.20;;;;;;;22.30;37.60;95466.94;5029475;28;20109;-60
2022/05/03 11:49:15;;;;;;;3.30;2.58;;;;;;;22.86;36.28;95454.38;5029439;28;20414;-59
2022/05/03 11:57:35;;;;;;;2.60;2.10;;;;;;;22.84;36.08;95455.66;5029152;28;20446;-59
2022/05/03 12:00:04;;;;;;;2.70;2.10;;;;;;;22.23;37.09;95456.31;5031802;28;20082;-59
2022/05/03 12:02:34;;;;;;;2.50;2.33;;;;;;;22.39;36.08;95452.22;5030987;28;20049;-59
2022/05/03 12:05:06;;;;;;;5.28;2.17;;;;;;;22.53;35.09;95447.56;5031304;28;20451;-59
2022/05/03 12:07:44;;;;;;;2.08;1.98;;;;;;;22.82;35.31;95447.84;5027287;28;20025;-59
2022/05/03 12:10:16;;;;;;;2.38;2.17;;;;;;;22.88;35.80;95446.13;5030797;28;20079;-59
2022/05/03 12:12:45;;;;;;;2.88;2.58;;;;;;;23.29;35.48;95441.88;5031759;28;20112;-60
2022/05/03 12:15:26;;;;;;;2.63;2.47;;;;;;;23.54;35.64;95442.75;5031152;28;20696;-59